createdAt,value
2023-02-17T00:01:36.984Z,27.17
2023-02-17T00:04:39.151Z,30.35
2023-02-17T00:07:40.671Z,29.80
2023-02-17T00:14:03.441Z,28.90
2023-02-17T00:17:06.279Z,33.60
2023-02-17T00:20:08.226Z,30.02
2023-02-17T00:23:10.386Z,30.45
2023-02-17T00:26:11.995Z,26.92
2023-02-17T00:29:14.483Z,31.05
2023-02-17T00:32:16.469Z,30.70
2023-02-17T00:35:18.771Z,32.20
2023-02-17T00:38:20.061Z,29.52
2023-02-17T00:41:23.022Z,30.98
2023-02-17T00:44:25.005Z,28.77
2023-02-17T00:47:27.862Z,29.30
2023-02-17T00:50:29.266Z,26.77
2023-02-17T00:53:31.478Z,29.48
2023-02-17T00:56:32.757Z,29.83
2023-02-17T00:59:34.925Z,30.88
2023-02-17T01:02:37.818Z,32.43
2023-02-17T01:05:42.161Z,29.48
2023-02-17T01:08:43.418Z,31.85
2023-02-17T01:11:44.811Z,29.65
2023-02-17T01:14:46.200Z,30.60
2023-02-17T01:17:49.080Z,26.80
2023-02-17T01:20:50.687Z,31.13
2023-02-17T01:23:54.592Z,29.60
2023-02-17T01:26:56.853Z,27.23
2023-02-17T01:29:58.173Z,28.27
2023-02-17T01:33:01.140Z,27.70
2023-02-17T01:36:02.921Z,28.60
2023-02-17T01:39:05.204Z,34.00
2023-02-17T01:42:07.423Z,28.33
2023-02-17T01:45:36.518Z,29.73
2023-02-17T01:48:42.527Z,28.50
2023-02-17T01:51:48.785Z,29.58
2023-02-17T01:54:55.013Z,32.85
2023-02-17T01:57:58.320Z,30.35
2023-02-17T02:01:02.556Z,32.10
2023-02-17T02:04:06.598Z,33.10
2023-02-17T02:07:16.214Z,27.10
2023-02-17T02:10:19.481Z,28.92
2023-02-17T02:13:21.177Z,29.15
2023-02-17T02:16:30.765Z,31.27
2023-02-17T02:19:50.527Z,28.77
2023-02-17T02:23:29.999Z,34.30
2023-02-17T02:27:19.555Z,31.48
2023-02-17T02:30:47.365Z,27.45
2023-02-17T02:33:52.051Z,34.55
2023-02-17T02:36:58.973Z,33.87
2023-02-17T02:40:03.237Z,33.05
2023-02-17T02:43:06.076Z,29.17
2023-02-17T02:46:07.732Z,32.97
2023-02-17T02:49:11.623Z,35.30
2023-02-17T02:52:23.329Z,32.40
2023-02-17T02:55:41.895Z,34.72
2023-02-17T02:58:50.647Z,31.30
2023-02-17T03:02:06.011Z,33.63
2023-02-17T03:05:16.018Z,37.72
2023-02-17T03:08:21.999Z,32.83
2023-02-17T03:11:32.557Z,32.13
2023-02-17T03:14:38.283Z,42.65
2023-02-17T03:17:40.474Z,37.30
2023-02-17T03:20:48.516Z,37.10
2023-02-17T03:23:49.811Z,36.93
2023-02-17T03:26:52.401Z,33.63
2023-02-17T03:29:54.005Z,32.40
2023-02-17T03:32:56.666Z,35.95
2023-02-17T03:35:58.596Z,35.13
2023-02-17T03:39:01.197Z,35.13
2023-02-17T03:42:03.081Z,34.75
2023-02-17T03:45:04.855Z,38.90
2023-02-17T03:48:06.173Z,36.47
2023-02-17T03:51:14.586Z,35.53
2023-02-17T03:54:15.878Z,34.53
2023-02-17T03:57:18.418Z,35.83
2023-02-17T04:00:20.995Z,39.35
2023-02-17T04:03:23.600Z,35.92
2023-02-17T04:06:26.838Z,39.13
2023-02-17T04:09:29.470Z,36.83
2023-02-17T04:12:30.778Z,37.17
2023-02-17T04:15:32.138Z,36.00
2023-02-17T04:18:34.773Z,34.72
2023-02-17T04:21:36.772Z,34.83
2023-02-17T04:24:38.321Z,33.77
2023-02-17T04:27:39.585Z,32.17
2023-02-17T04:30:41.046Z,34.90
2023-02-17T04:33:42.329Z,33.00
2023-02-17T04:36:45.798Z,34.53
2023-02-17T04:39:47.164Z,35.50
2023-02-17T04:42:49.654Z,32.15
2023-02-17T04:45:51.405Z,31.92
2023-02-17T04:48:54.019Z,31.83
2023-02-17T04:51:56.016Z,34.97
2023-02-17T04:54:57.351Z,34.73
2023-02-17T04:57:58.774Z,28.60
2023-02-17T05:01:01.530Z,33.20
2023-02-17T05:04:03.018Z,32.15
2023-02-17T05:07:05.410Z,31.92
2023-02-17T05:10:07.504Z,36.00
2023-02-17T05:13:10.226Z,33.85
2023-02-17T05:16:11.568Z,31.80
2023-02-17T05:19:14.032Z,31.25
2023-02-17T05:22:16.028Z,30.83
2023-02-17T05:25:19.062Z,31.77
2023-02-17T05:28:20.320Z,31.90
2023-02-17T05:31:21.753Z,32.50
2023-02-17T05:34:23.068Z,31.85
2023-02-17T05:37:26.081Z,33.40
2023-02-17T05:40:27.382Z,32.80
2023-02-17T05:46:48.356Z,31.73
2023-02-17T05:49:50.822Z,33.30
2023-02-17T05:52:52.823Z,31.83
2023-02-17T05:55:54.217Z,33.53
2023-02-17T05:58:55.822Z,34.97
2023-02-17T06:01:58.233Z,29.95
2023-02-17T06:04:59.721Z,33.30
2023-02-17T06:08:02.897Z,35.50
2023-02-17T06:11:05.069Z,33.83
2023-02-17T06:14:07.580Z,32.80
2023-02-17T06:17:08.954Z,31.20
2023-02-17T06:20:12.327Z,34.22
2023-02-17T06:23:15.474Z,31.00
2023-02-17T06:26:18.242Z,29.67
2023-02-17T06:29:19.666Z,29.35
2023-02-17T06:32:21.074Z,32.35
2023-02-17T06:35:23.479Z,28.27
2023-02-17T06:38:25.609Z,31.02
2023-02-17T06:41:28.065Z,26.87
2023-02-17T06:44:30.403Z,29.70
2023-02-17T06:47:32.206Z,29.63
2023-02-17T06:50:34.269Z,28.98
2023-02-17T06:53:36.297Z,31.08
2023-02-17T06:56:37.620Z,25.83
2023-02-17T07:02:59.846Z,28.25
2023-02-17T07:06:01.212Z,29.00
2023-02-17T07:09:04.890Z,28.65
2023-02-17T07:12:07.846Z,26.97
2023-02-17T07:15:12.363Z,26.13
2023-02-17T07:21:34.481Z,24.98
2023-02-17T07:24:36.411Z,24.45
2023-02-17T07:27:38.060Z,25.47
2023-02-17T07:30:40.671Z,25.67
2023-02-17T07:33:43.007Z,26.75
2023-02-17T07:40:07.779Z,23.48
2023-02-17T07:43:09.118Z,22.00
2023-02-17T07:46:11.587Z,22.67
2023-02-17T07:49:15.145Z,23.15
2023-02-17T07:55:18.351Z,24.95
2023-02-17T07:58:19.619Z,24.77
2023-02-17T08:01:22.502Z,21.92
2023-02-17T08:04:23.844Z,23.55
2023-02-17T08:07:25.278Z,21.80
2023-02-17T08:10:46.501Z,21.50
2023-02-17T08:13:47.795Z,22.83
2023-02-17T08:16:49.175Z,23.83
2023-02-17T08:19:50.480Z,22.17
2023-02-17T08:22:51.800Z,19.52
2023-02-17T08:25:58.306Z,21.08
2023-02-17T08:29:01.249Z,21.27
2023-02-17T08:32:03.174Z,20.17
2023-02-17T08:35:05.876Z,20.70
2023-02-17T08:38:07.145Z,19.75
2023-02-17T08:41:13.639Z,19.85
2023-02-17T08:44:18.166Z,19.50
2023-02-17T08:47:19.467Z,19.23
2023-02-17T08:50:21.875Z,19.50
2023-02-17T08:53:23.179Z,19.17
2023-02-17T08:56:26.628Z,22.48
2023-02-17T08:59:27.887Z,20.77
2023-02-17T09:02:30.498Z,19.58
2023-02-17T09:05:33.600Z,22.17
2023-02-17T09:08:34.936Z,20.10
2023-02-17T09:11:38.727Z,19.70
2023-02-17T09:14:40.125Z,18.47
2023-02-17T09:17:41.496Z,21.85
2023-02-17T09:20:43.910Z,21.27
2023-02-17T09:23:45.566Z,21.75
2023-02-17T09:26:48.679Z,21.17
2023-02-17T09:29:50.018Z,19.53
2023-02-17T09:32:52.757Z,20.27
2023-02-17T09:35:54.061Z,22.52
2023-02-17T09:38:56.066Z,20.90
2023-02-17T09:41:59.085Z,23.08
2023-02-17T09:45:04.536Z,21.53
2023-02-17T09:48:08.683Z,23.67
2023-02-17T09:51:18.694Z,21.98
2023-02-17T09:54:26.483Z,22.25
2023-02-17T09:57:34.144Z,23.48
2023-02-17T10:00:40.692Z,25.50
2023-02-17T10:03:46.308Z,25.08
2023-02-17T10:06:51.867Z,22.40
2023-02-17T10:09:59.601Z,22.92
2023-02-17T10:13:03.990Z,26.52
2023-02-17T10:16:11.220Z,24.13
2023-02-17T10:19:16.942Z,22.75
2023-02-17T10:22:20.923Z,22.42
2023-02-17T10:25:44.260Z,22.00
2023-02-17T10:28:52.848Z,22.90
2023-02-17T10:32:10.269Z,21.93
2023-02-17T10:35:17.024Z,23.90
2023-02-17T10:38:28.311Z,24.75
2023-02-17T10:41:35.845Z,22.33
2023-02-17T10:44:38.454Z,22.25
2023-02-17T10:47:40.444Z,25.43
2023-02-17T10:50:43.556Z,23.58
2023-02-17T10:53:48.272Z,24.02
2023-02-17T10:56:55.252Z,25.05
2023-02-17T10:59:57.685Z,22.40
2023-02-17T11:03:00.192Z,24.67
2023-02-17T11:06:04.079Z,23.75
2023-02-17T11:09:17.439Z,24.48
2023-02-17T11:12:22.352Z,25.80
2023-02-17T11:15:28.508Z,22.00
2023-02-17T11:18:34.311Z,23.57
2023-02-17T11:21:42.672Z,23.20
2023-02-17T11:24:44.114Z,23.20
2023-02-17T11:27:50.380Z,22.40
2023-02-17T11:30:56.173Z,21.05
2023-02-17T11:37:21.094Z,22.02
2023-02-17T11:40:27.334Z,20.08
2023-02-17T11:43:29.915Z,22.55
2023-02-17T11:46:33.517Z,23.05
2023-02-17T11:49:55.115Z,21.90
2023-02-17T11:56:34.040Z,21.75
2023-02-17T12:03:22.329Z,18.83
2023-02-17T12:09:39.943Z,18.80
2023-02-17T12:12:59.034Z,19.52
2023-02-17T12:16:16.319Z,17.92
2023-02-17T12:19:32.735Z,18.80
2023-02-17T12:22:43.340Z,17.53
2023-02-17T12:25:50.902Z,15.82
2023-02-17T12:29:17.713Z,16.77
2023-02-17T12:32:32.333Z,15.73
2023-02-17T12:35:43.580Z,15.43
2023-02-17T12:38:50.559Z,14.97
2023-02-17T12:41:59.837Z,15.00
2023-02-17T12:45:06.389Z,13.32
2023-02-17T12:48:13.830Z,13.77
2023-02-17T12:51:23.231Z,13.95
2023-02-17T12:54:32.320Z,12.53
2023-02-17T12:57:41.661Z,12.52
2023-02-17T13:00:46.152Z,13.43
2023-02-17T13:03:48.068Z,11.80
2023-02-17T13:06:54.619Z,12.23
2023-02-17T13:09:56.864Z,11.93
2023-02-17T13:13:05.023Z,12.43
2023-02-17T13:16:11.133Z,13.45
2023-02-17T13:19:14.351Z,15.98
2023-02-17T13:22:23.130Z,13.93
2023-02-17T13:25:29.536Z,12.30
2023-02-17T13:28:35.826Z,10.55
2023-02-17T13:31:50.331Z,10.82
2023-02-17T13:34:59.887Z,10.88
2023-02-17T13:38:02.444Z,11.88
2023-02-17T13:41:07.556Z,10.23
2023-02-17T13:44:30.889Z,10.55
2023-02-17T13:47:37.864Z,10.20
2023-02-17T13:50:45.023Z,10.10
2023-02-17T13:53:49.856Z,10.32
2023-02-17T13:56:53.655Z,11.20
2023-02-17T14:00:10.257Z,11.93
2023-02-17T14:03:20.019Z,10.02
2023-02-17T14:06:27.788Z,11.80
2023-02-17T14:09:31.516Z,11.77
2023-02-17T14:12:32.906Z,10.87
2023-02-17T14:15:34.912Z,12.40
2023-02-17T14:18:38.398Z,11.82
2023-02-17T14:21:41.996Z,11.38
2023-02-17T14:24:43.316Z,11.18
2023-02-17T14:27:47.656Z,12.73
2023-02-17T14:30:50.683Z,11.20
2023-02-17T14:33:54.162Z,11.20
2023-02-17T14:37:07.336Z,11.88
2023-02-17T14:40:17.025Z,13.18
2023-02-17T14:43:18.709Z,15.23
2023-02-17T14:46:20.880Z,13.15
2023-02-17T14:49:23.184Z,15.43
2023-02-17T14:52:25.160Z,15.50
2023-02-17T14:55:33.088Z,12.85
2023-02-17T14:58:35.504Z,17.63
2023-02-17T15:04:58.066Z,15.18
2023-02-17T15:08:02.187Z,16.98
2023-02-17T15:11:03.628Z,16.83
2023-02-17T15:14:07.315Z,17.13
2023-02-17T15:17:10.328Z,15.35
2023-02-17T15:20:13.023Z,16.48
2023-02-17T15:23:16.542Z,16.83
2023-02-17T15:26:17.799Z,15.73
2023-02-17T15:29:21.508Z,15.90
2023-02-17T15:32:23.934Z,16.13
2023-02-17T15:35:27.395Z,16.40
2023-02-17T15:38:29.727Z,16.88
2023-02-17T15:41:31.690Z,14.30
2023-02-17T15:44:40.562Z,14.13
2023-02-17T15:47:42.623Z,15.00
2023-02-17T15:50:44.941Z,15.25
2023-02-17T15:53:46.991Z,15.60
2023-02-17T15:56:50.078Z,15.10
2023-02-17T15:59:55.352Z,13.57
2023-02-17T16:02:57.477Z,13.77
2023-02-17T16:05:59.248Z,13.75
2023-02-17T16:09:00.654Z,12.80
2023-02-17T16:12:02.152Z,13.35
2023-02-17T16:15:04.205Z,13.03
2023-02-17T16:18:06.224Z,12.15
2023-02-17T16:21:09.530Z,14.00
2023-02-17T16:24:10.951Z,12.63
2023-02-17T16:27:15.416Z,12.13
2023-02-17T16:30:19.664Z,12.50
2023-02-17T16:33:21.631Z,12.20
2023-02-17T16:36:23.005Z,12.18
2023-02-17T16:39:24.310Z,11.15
2023-02-17T16:42:25.756Z,10.40
2023-02-17T16:45:29.981Z,9.73
2023-02-17T16:48:35.137Z,11.27
2023-02-17T16:51:36.992Z,10.20
2023-02-17T16:54:39.580Z,9.15
2023-02-17T16:57:42.530Z,8.75
2023-02-17T17:00:44.904Z,8.30
2023-02-17T17:03:46.919Z,9.15
2023-02-17T17:06:51.211Z,10.25
2023-02-17T17:10:14.648Z,8.20
2023-02-17T17:13:13.848Z,9.02
2023-02-17T17:16:19.313Z,8.30
2023-02-17T17:19:21.667Z,8.20
2023-02-17T17:22:23.657Z,7.50
2023-02-17T17:25:25.081Z,8.00
2023-02-17T17:28:26.364Z,8.88
2023-02-17T17:31:28.395Z,8.47
2023-02-17T17:34:30.398Z,8.40
2023-02-17T17:37:31.702Z,7.35
2023-02-17T17:40:47.324Z,7.17
2023-02-17T17:43:50.222Z,8.77
2023-02-17T17:46:51.574Z,6.20
2023-02-17T17:49:53.485Z,7.20
2023-02-17T17:52:54.820Z,5.97
2023-02-17T17:55:56.103Z,7.17
2023-02-17T17:58:59.249Z,6.70
2023-02-17T18:02:00.744Z,5.90
2023-02-17T18:05:03.189Z,5.03
2023-02-17T18:08:05.444Z,6.22
2023-02-17T18:11:08.027Z,4.93
2023-02-17T18:14:13.824Z,5.17
2023-02-17T18:17:17.377Z,5.68
2023-02-17T18:20:19.599Z,4.78
2023-02-17T18:23:20.909Z,5.30
2023-02-17T18:26:22.331Z,6.07
2023-02-17T18:29:23.851Z,3.30
2023-02-17T18:32:25.203Z,5.75
2023-02-17T18:35:27.482Z,6.88
2023-02-17T18:38:30.189Z,4.22
2023-02-17T18:41:34.464Z,5.17
2023-02-17T18:44:37.059Z,4.80
2023-02-17T18:47:38.367Z,5.13
2023-02-17T18:50:41.598Z,3.97
2023-02-17T18:53:43.037Z,3.60
2023-02-17T18:56:45.451Z,5.97
2023-02-17T18:59:46.905Z,5.93
2023-02-17T19:02:48.340Z,5.70
2023-02-17T19:05:51.501Z,5.90
2023-02-17T19:08:53.309Z,3.67
2023-02-17T19:11:55.028Z,3.87
2023-02-17T19:14:56.461Z,3.80
2023-02-17T19:17:58.047Z,4.93
2023-02-17T19:21:00.071Z,5.28
2023-02-17T19:24:01.336Z,6.32
2023-02-17T19:27:02.962Z,3.53
2023-02-17T19:30:05.404Z,4.13
2023-02-17T19:33:06.709Z,4.38
2023-02-17T19:36:10.989Z,6.38
2023-02-17T19:39:12.277Z,5.68
2023-02-17T19:42:13.571Z,6.17
2023-02-17T19:45:14.965Z,4.10
2023-02-17T19:48:16.226Z,5.38
2023-02-17T19:51:19.055Z,5.40
2023-02-17T19:54:21.372Z,8.05
2023-02-17T19:57:22.773Z,7.27
2023-02-17T20:00:24.577Z,5.93
2023-02-17T20:03:25.876Z,7.97
2023-02-17T20:06:29.841Z,4.38
2023-02-17T20:09:32.902Z,5.82
2023-02-17T20:12:34.453Z,6.90
2023-02-17T20:15:36.197Z,5.50
2023-02-17T20:18:39.018Z,6.57
2023-02-17T20:21:45.262Z,5.45
2023-02-17T20:24:46.631Z,7.82
2023-02-17T20:27:49.302Z,6.73
2023-02-17T20:30:51.246Z,6.77
2023-02-17T20:33:52.941Z,6.15
2023-02-17T20:36:55.462Z,7.78
2023-02-17T20:39:56.890Z,6.57
2023-02-17T20:43:00.499Z,6.47
2023-02-17T20:46:03.201Z,5.93
2023-02-17T20:49:04.526Z,7.30
2023-02-17T20:52:06.486Z,5.20
2023-02-17T20:55:08.244Z,8.73
2023-02-17T20:58:10.277Z,6.43
2023-02-17T21:01:11.950Z,8.70
2023-02-17T21:04:14.459Z,8.68
2023-02-17T21:07:17.366Z,8.57
2023-02-17T21:10:21.179Z,7.00
2023-02-17T21:13:23.732Z,6.30
2023-02-17T21:16:27.475Z,8.13
2023-02-17T21:22:50.598Z,4.75
2023-02-17T21:25:52.820Z,6.28
2023-02-17T21:28:54.634Z,6.70
2023-02-17T21:35:15.323Z,10.30
2023-02-17T21:41:41.273Z,9.70
2023-02-17T21:44:52.298Z,6.13
2023-02-17T21:47:53.887Z,7.40
2023-02-17T21:51:04.939Z,6.37
2023-02-17T21:54:10.989Z,8.30
2023-02-17T21:57:12.268Z,5.78
2023-02-17T22:00:15.026Z,6.85
2023-02-17T22:03:17.449Z,7.30
2023-02-17T22:06:21.362Z,9.00
2023-02-17T22:09:24.651Z,7.38
2023-02-17T22:12:26.312Z,6.32
2023-02-17T22:18:47.704Z,7.60
2023-02-17T22:21:50.091Z,8.87
2023-02-17T22:24:52.230Z,11.05
2023-02-17T22:27:53.487Z,9.15
2023-02-17T22:30:54.799Z,6.07
2023-02-17T22:33:57.187Z,10.90
2023-02-17T22:36:58.589Z,8.23
2023-02-17T22:40:00.542Z,8.52
2023-02-17T22:43:01.929Z,6.47
2023-02-17T22:46:04.121Z,5.93
2023-02-17T22:49:05.637Z,6.80
2023-02-17T22:52:07.256Z,9.07
2023-02-17T22:55:10.155Z,4.10
2023-02-17T22:58:11.435Z,9.73
2023-02-17T23:01:16.485Z,6.95
2023-02-17T23:04:17.916Z,7.88
2023-02-17T23:07:20.389Z,9.52
2023-02-17T23:10:23.507Z,10.77
2023-02-17T23:13:25.135Z,10.27
2023-02-17T23:19:46.968Z,6.93
2023-02-17T23:22:48.717Z,9.75
2023-02-17T23:25:54.363Z,8.40
2023-02-17T23:28:55.840Z,10.63
2023-02-17T23:31:58.744Z,11.23
2023-02-17T23:35:00.118Z,8.82
2023-02-17T23:38:01.382Z,8.23
2023-02-17T23:41:03.845Z,10.93
2023-02-17T23:44:07.519Z,11.18
2023-02-17T23:47:08.780Z,8.52
2023-02-17T23:50:10.764Z,11.57
2023-02-17T23:53:12.031Z,9.63
2023-02-17T23:56:29.336Z,10.13
2023-02-17T23:59:30.605Z,11.05
